Terminal Aerodrome Forecast
Issued by NWS

Home | Current Version | Previous Version | Text Only | Print | Product List | Glossary Off
Versions: 1 2 3 4 5 6 7 8 9 10 11 12 13 14 15 16 17

000
FTUS43 KGRB 270500
TAFATW
TAF
KATW 270520Z 2706/2806 06003KT 6SM -SN SCT009 OVC020
      TEMPO 2706/2708 3SM -SHSN BKN009
     FM270800 05004KT P6SM -SN SCT007 OVC012
      TEMPO 2708/2712 5SM -SHSN BKN007
     FM271200 02004KT P6SM -SN OVC018
     FM271600 08004KT P6SM BKN025 OVC035
     FM272200 VRB03KT P6SM SCT035 BKN050=

USA.gov is the U.S. government's official web portal to all federal, state and local government web resources and services.